sensor_id;sensor_type;location;lat;lon;timestamp;temperature;humidity
2995;DHT22;35277;49.890;8.222;2022-10-18T00:00:51;23.10;84.00
2995;DHT22;35277;49.890;8.222;2022-10-18T00:03:19;23.10;84.00
2995;DHT22;35277;49.890;8.222;2022-10-18T00:05:48;23.10;84.00
2995;DHT22;35277;49.890;8.222;2022-10-18T00:08:16;23.10;84.00
2995;DHT22;35277;49.890;8.222;2022-10-18T00:10:44;23.10;84.00
2995;DHT22;35277;49.890;8.222;2022-10-18T00:13:14;23.10;84.00
2995;DHT22;35277;49.890;8.222;2022-10-18T00:15:47;23.10;84.70
2995;DHT22;35277;49.890;8.222;2022-10-18T00:18:15;23.10;83.90
2995;DHT22;35277;49.890;8.222;2022-10-18T00:20:43;23.10;84.00
2995;DHT22;35277;49.890;8.222;2022-10-18T00:23:11;23.10;83.90
2995;DHT22;35277;49.890;8.222;2022-10-18T00:25:39;23.10;83.90
2995;DHT22;35277;49.890;8.222;2022-10-18T00:28:06;23.10;84.00
2995;DHT22;35277;49.890;8.222;2022-10-18T00:30:36;23.10;83.90
2995;DHT22;35277;49.890;8.222;2022-10-18T00:33:03;23.10;83.90
2995;DHT22;35277;49.890;8.222;2022-10-18T00:35:33;23.10;83.90
2995;DHT22;35277;49.890;8.222;2022-10-18T00:38:01;23.10;83.80
2995;DHT22;35277;49.890;8.222;2022-10-18T00:40:28;23.10;83.80
2995;DHT22;35277;49.890;8.222;2022-10-18T00:42:56;23.10;83.80
2995;DHT22;35277;49.890;8.222;2022-10-18T00:45:24;23.10;83.80
2995;DHT22;35277;49.890;8.222;2022-10-18T00:47:55;23.10;83.80
2995;DHT22;35277;49.890;8.222;2022-10-18T00:50:26;23.10;83.80
2995;DHT22;35277;49.890;8.222;2022-10-18T00:52:56;23.10;83.80
2995;DHT22;35277;49.890;8.222;2022-10-18T00:55:25;23.10;83.80
2995;DHT22;35277;49.890;8.222;2022-10-18T00:57:54;23.10;83.80
2995;DHT22;35277;49.890;8.222;2022-10-18T01:00:23;23.10;83.80
2995;DHT22;35277;49.890;8.222;2022-10-18T01:02:51;23.10;83.70
2995;DHT22;35277;49.890;8.222;2022-10-18T01:05:20;23.10;83.70
2995;DHT22;35277;49.890;8.222;2022-10-18T01:08:01;23.10;83.80
2995;DHT22;35277;49.890;8.222;2022-10-18T01:10:38;23.10;83.70
2995;DHT22;35277;49.890;8.222;2022-10-18T01:13:17;23.10;83.70
2995;DHT22;35277;49.890;8.222;2022-10-18T01:16:00;23.10;83.70
2995;DHT22;35277;49.890;8.222;2022-10-18T01:18:32;23.10;83.70
2995;DHT22;35277;49.890;8.222;2022-10-18T01:21:21;23.00;83.60
2995;DHT22;35277;49.890;8.222;2022-10-18T01:24:17;23.00;83.60
2995;DHT22;35277;49.890;8.222;2022-10-18T01:27:11;23.10;83.70
2995;DHT22;35277;49.890;8.222;2022-10-18T01:29:52;23.00;83.60
2995;DHT22;35277;49.890;8.222;2022-10-18T01:32:28;23.00;83.50
2995;DHT22;35277;49.890;8.222;2022-10-18T01:35:00;23.00;83.60
2995;DHT22;35277;49.890;8.222;2022-10-18T01:37:30;23.00;83.60
2995;DHT22;35277;49.890;8.222;2022-10-18T01:40:02;23.00;83.50
2995;DHT22;35277;49.890;8.222;2022-10-18T01:42:32;23.00;83.60
2995;DHT22;35277;49.890;8.222;2022-10-18T01:45:00;23.00;83.50
2995;DHT22;35277;49.890;8.222;2022-10-18T01:47:31;23.00;83.50
2995;DHT22;35277;49.890;8.222;2022-10-18T01:50:02;23.00;83.50
2995;DHT22;35277;49.890;8.222;2022-10-18T01:52:31;23.00;83.50
2995;DHT22;35277;49.890;8.222;2022-10-18T01:54:59;23.00;83.50
2995;DHT22;35277;49.890;8.222;2022-10-18T01:57:34;23.00;83.50
2995;DHT22;35277;49.890;8.222;2022-10-18T02:00:06;23.00;83.50
2995;DHT22;35277;49.890;8.222;2022-10-18T02:02:46;23.00;83.50
2995;DHT22;35277;49.890;8.222;2022-10-18T02:05:23;23.00;83.50
2995;DHT22;35277;49.890;8.222;2022-10-18T02:08:01;23.00;83.40
2995;DHT22;35277;49.890;8.222;2022-10-18T02:10:50;23.00;83.40
2995;DHT22;35277;49.890;8.222;2022-10-18T02:13:21;23.00;83.40
2995;DHT22;35277;49.890;8.222;2022-10-18T02:15:53;23.00;83.40
2995;DHT22;35277;49.890;8.222;2022-10-18T02:18:28;23.00;83.40
2995;DHT22;35277;49.890;8.222;2022-10-18T02:20:57;23.00;83.40
2995;DHT22;35277;49.890;8.222;2022-10-18T02:23:25;23.00;83.40
2995;DHT22;35277;49.890;8.222;2022-10-18T02:25:54;23.00;83.40
2995;DHT22;35277;49.890;8.222;2022-10-18T02:28:21;23.00;83.40
2995;DHT22;35277;49.890;8.222;2022-10-18T02:30:57;23.00;83.40
2995;DHT22;35277;49.890;8.222;2022-10-18T02:33:33;23.00;83.30
2995;DHT22;35277;49.890;8.222;2022-10-18T02:36:10;23.00;83.40
2995;DHT22;35277;49.890;8.222;2022-10-18T02:38:40;23.00;83.40
2995;DHT22;35277;49.890;8.222;2022-10-18T02:41:08;23.00;83.30
2995;DHT22;35277;49.890;8.222;2022-10-18T02:43:36;23.00;83.40
2995;DHT22;35277;49.890;8.222;2022-10-18T02:46:04;23.00;83.40
2995;DHT22;35277;49.890;8.222;2022-10-18T02:48:33;23.00;83.40
2995;DHT22;35277;49.890;8.222;2022-10-18T02:51:01;23.00;83.30
2995;DHT22;35277;49.890;8.222;2022-10-18T02:53:29;23.00;83.30
2995;DHT22;35277;49.890;8.222;2022-10-18T02:55:57;23.00;84.10
2995;DHT22;35277;49.890;8.222;2022-10-18T02:58:24;23.00;83.30
2995;DHT22;35277;49.890;8.222;2022-10-18T03:00:52;23.00;83.30
2995;DHT22;35277;49.890;8.222;2022-10-18T03:03:20;23.00;83.30
2995;DHT22;35277;49.890;8.222;2022-10-18T03:05:49;23.00;84.10
2995;DHT22;35277;49.890;8.222;2022-10-18T03:08:17;23.00;83.30
2995;DHT22;35277;49.890;8.222;2022-10-18T03:10:45;23.00;83.30
2995;DHT22;35277;49.890;8.222;2022-10-18T03:13:13;23.00;83.30
2995;DHT22;35277;49.890;8.222;2022-10-18T03:15:41;23.00;83.30
2995;DHT22;35277;49.890;8.222;2022-10-18T03:18:09;23.00;83.30
2995;DHT22;35277;49.890;8.222;2022-10-18T03:20:37;23.00;83.20
2995;DHT22;35277;49.890;8.222;2022-10-18T03:23:06;23.00;83.30
2995;DHT22;35277;49.890;8.222;2022-10-18T03:25:34;23.00;83.30
2995;DHT22;35277;49.890;8.222;2022-10-18T03:28:02;23.00;83.30
2995;DHT22;35277;49.890;8.222;2022-10-18T03:30:30;23.00;83.30
2995;DHT22;35277;49.890;8.222;2022-10-18T03:32:58;23.00;83.30
2995;DHT22;35277;49.890;8.222;2022-10-18T03:35:25;23.00;83.20
2995;DHT22;35277;49.890;8.222;2022-10-18T03:37:53;23.00;83.20
2995;DHT22;35277;49.890;8.222;2022-10-18T03:40:22;23.00;83.20
2995;DHT22;35277;49.890;8.222;2022-10-18T03:42:50;23.00;83.20
2995;DHT22;35277;49.890;8.222;2022-10-18T03:45:18;23.00;83.20
2995;DHT22;35277;49.890;8.222;2022-10-18T03:47:46;23.00;83.20
2995;DHT22;35277;49.890;8.222;2022-10-18T03:50:14;23.00;83.20
2995;DHT22;35277;49.890;8.222;2022-10-18T03:52:41;23.00;83.20
2995;DHT22;35277;49.890;8.222;2022-10-18T03:55:09;23.00;83.20
2995;DHT22;35277;49.890;8.222;2022-10-18T03:57:38;23.00;83.20
2995;DHT22;35277;49.890;8.222;2022-10-18T04:00:07;23.00;83.20
2995;DHT22;35277;49.890;8.222;2022-10-18T04:02:38;23.00;83.20
2995;DHT22;35277;49.890;8.222;2022-10-18T04:05:06;23.00;83.20
2995;DHT22;35277;49.890;8.222;2022-10-18T04:07:35;23.00;83.20
2995;DHT22;35277;49.890;8.222;2022-10-18T04:10:08;23.00;83.20
2995;DHT22;35277;49.890;8.222;2022-10-18T04:12:35;23.00;83.20
2995;DHT22;35277;49.890;8.222;2022-10-18T04:15:06;23.00;83.20
2995;DHT22;35277;49.890;8.222;2022-10-18T04:17:34;23.00;83.20
2995;DHT22;35277;49.890;8.222;2022-10-18T04:20:01;23.00;83.20
2995;DHT22;35277;49.890;8.222;2022-10-18T04:22:29;23.00;83.20
2995;DHT22;35277;49.890;8.222;2022-10-18T04:24:57;23.00;83.20
2995;DHT22;35277;49.890;8.222;2022-10-18T04:27:25;23.00;83.20
2995;DHT22;35277;49.890;8.222;2022-10-18T04:29:53;23.00;83.20
2995;DHT22;35277;49.890;8.222;2022-10-18T04:32:22;23.00;83.20
2995;DHT22;35277;49.890;8.222;2022-10-18T04:34:50;23.00;83.20
2995;DHT22;35277;49.890;8.222;2022-10-18T04:37:17;23.00;83.20
2995;DHT22;35277;49.890;8.222;2022-10-18T04:39:45;23.00;83.30
2995;DHT22;35277;49.890;8.222;2022-10-18T04:42:19;23.00;83.30
2995;DHT22;35277;49.890;8.222;2022-10-18T04:44:47;23.00;83.40
2995;DHT22;35277;49.890;8.222;2022-10-18T04:47:16;23.00;83.50
2995;DHT22;35277;49.890;8.222;2022-10-18T04:49:45;23.00;83.50
2995;DHT22;35277;49.890;8.222;2022-10-18T04:52:13;23.00;83.80
2995;DHT22;35277;49.890;8.222;2022-10-18T04:54:40;23.00;84.20
2995;DHT22;35277;49.890;8.222;2022-10-18T04:57:08;23.00;84.30
2995;DHT22;35277;49.890;8.222;2022-10-18T04:59:36;23.10;84.60
2995;DHT22;35277;49.890;8.222;2022-10-18T05:02:04;23.10;84.70
2995;DHT22;35277;49.890;8.222;2022-10-18T05:04:32;23.10;84.80
2995;DHT22;35277;49.890;8.222;2022-10-18T05:07:01;23.10;84.90
2995;DHT22;35277;49.890;8.222;2022-10-18T05:09:31;23.10;85.00
2995;DHT22;35277;49.890;8.222;2022-10-18T05:11:59;23.10;85.00
2995;DHT22;35277;49.890;8.222;2022-10-18T05:14:27;23.10;85.10
2995;DHT22;35277;49.890;8.222;2022-10-18T05:16:54;23.10;85.20
2995;DHT22;35277;49.890;8.222;2022-10-18T05:19:22;23.10;85.40
2995;DHT22;35277;49.890;8.222;2022-10-18T05:21:50;23.10;85.60
2995;DHT22;35277;49.890;8.222;2022-10-18T05:24:19;23.20;86.10
2995;DHT22;35277;49.890;8.222;2022-10-18T05:26:51;23.20;86.40
2995;DHT22;35277;49.890;8.222;2022-10-18T05:29:18;23.20;86.50
2995;DHT22;35277;49.890;8.222;2022-10-18T05:31:47;23.20;86.70
2995;DHT22;35277;49.890;8.222;2022-10-18T05:34:15;23.20;86.80
2995;DHT22;35277;49.890;8.222;2022-10-18T05:36:43;23.20;86.90
2995;DHT22;35277;49.890;8.222;2022-10-18T05:39:10;23.20;86.90
2995;DHT22;35277;49.890;8.222;2022-10-18T05:41:39;23.20;86.90
2995;DHT22;35277;49.890;8.222;2022-10-18T05:44:08;23.20;86.90
2995;DHT22;35277;49.890;8.222;2022-10-18T05:46:35;23.20;86.80
2995;DHT22;35277;49.890;8.222;2022-10-18T05:49:03;23.20;86.80
2995;DHT22;35277;49.890;8.222;2022-10-18T05:51:31;23.20;86.80
2995;DHT22;35277;49.890;8.222;2022-10-18T05:53:59;23.20;86.70
2995;DHT22;35277;49.890;8.222;2022-10-18T05:56:26;23.20;86.70
2995;DHT22;35277;49.890;8.222;2022-10-18T05:58:56;23.20;86.70
2995;DHT22;35277;49.890;8.222;2022-10-18T06:01:24;23.20;86.70
2995;DHT22;35277;49.890;8.222;2022-10-18T06:03:51;23.20;86.60
2995;DHT22;35277;49.890;8.222;2022-10-18T06:06:19;23.20;86.60
2995;DHT22;35277;49.890;8.222;2022-10-18T06:08:48;23.20;86.50
2995;DHT22;35277;49.890;8.222;2022-10-18T06:11:18;23.20;86.50
2995;DHT22;35277;49.890;8.222;2022-10-18T06:13:47;23.20;86.50
2995;DHT22;35277;49.890;8.222;2022-10-18T06:16:18;23.20;86.40
2995;DHT22;35277;49.890;8.222;2022-10-18T06:18:47;23.10;86.20
2995;DHT22;35277;49.890;8.222;2022-10-18T06:21:16;23.20;86.40
2995;DHT22;35277;49.890;8.222;2022-10-18T06:23:47;23.20;86.30
2995;DHT22;35277;49.890;8.222;2022-10-18T06:26:15;23.20;86.20
2995;DHT22;35277;49.890;8.222;2022-10-18T06:28:43;23.10;86.20
2995;DHT22;35277;49.890;8.222;2022-10-18T06:31:11;23.20;86.20
2995;DHT22;35277;49.890;8.222;2022-10-18T06:33:41;23.10;86.10
2995;DHT22;35277;49.890;8.222;2022-10-18T06:36:11;23.10;86.00
2995;DHT22;35277;49.890;8.222;2022-10-18T06:38:40;23.10;86.00
2995;DHT22;35277;49.890;8.222;2022-10-18T06:41:08;23.10;86.00
2995;DHT22;35277;49.890;8.222;2022-10-18T06:43:36;23.10;85.90
2995;DHT22;35277;49.890;8.222;2022-10-18T06:46:05;23.10;85.90
2995;DHT22;35277;49.890;8.222;2022-10-18T06:48:33;23.10;85.90
2995;DHT22;35277;49.890;8.222;2022-10-18T06:51:04;23.10;85.90
2995;DHT22;35277;49.890;8.222;2022-10-18T06:53:33;23.10;85.80
2995;DHT22;35277;49.890;8.222;2022-10-18T06:56:14;23.10;85.80
2995;DHT22;35277;49.890;8.222;2022-10-18T06:58:42;23.10;85.80
2995;DHT22;35277;49.890;8.222;2022-10-18T07:01:11;23.10;85.70
2995;DHT22;35277;49.890;8.222;2022-10-18T07:03:39;23.10;85.70
2995;DHT22;35277;49.890;8.222;2022-10-18T07:06:10;23.10;85.70
2995;DHT22;35277;49.890;8.222;2022-10-18T07:08:39;23.10;85.60
2995;DHT22;35277;49.890;8.222;2022-10-18T07:11:08;23.10;85.60
2995;DHT22;35277;49.890;8.222;2022-10-18T07:13:40;23.10;85.60
2995;DHT22;35277;49.890;8.222;2022-10-18T07:16:10;23.10;85.60
2995;DHT22;35277;49.890;8.222;2022-10-18T07:18:46;23.10;85.60
2995;DHT22;35277;49.890;8.222;2022-10-18T07:21:17;23.10;85.60
2995;DHT22;35277;49.890;8.222;2022-10-18T07:23:45;23.10;85.50
2995;DHT22;35277;49.890;8.222;2022-10-18T07:26:15;23.10;85.50
2995;DHT22;35277;49.890;8.222;2022-10-18T07:28:45;23.10;85.50
2995;DHT22;35277;49.890;8.222;2022-10-18T07:31:14;23.10;85.50
2995;DHT22;35277;49.890;8.222;2022-10-18T07:33:42;23.10;85.50
2995;DHT22;35277;49.890;8.222;2022-10-18T07:36:11;23.10;85.50
2995;DHT22;35277;49.890;8.222;2022-10-18T07:38:40;23.10;85.50
2995;DHT22;35277;49.890;8.222;2022-10-18T07:41:10;23.10;85.40
2995;DHT22;35277;49.890;8.222;2022-10-18T07:43:41;23.10;85.40
2995;DHT22;35277;49.890;8.222;2022-10-18T07:46:10;23.10;85.40
2995;DHT22;35277;49.890;8.222;2022-10-18T07:48:38;23.10;85.40
2995;DHT22;35277;49.890;8.222;2022-10-18T07:51:05;23.10;85.40
2995;DHT22;35277;49.890;8.222;2022-10-18T07:53:33;23.10;85.40
2995;DHT22;35277;49.890;8.222;2022-10-18T07:56:04;23.10;85.40
2995;DHT22;35277;49.890;8.222;2022-10-18T07:58:35;23.10;85.30
2995;DHT22;35277;49.890;8.222;2022-10-18T08:01:04;23.10;85.30
2995;DHT22;35277;49.890;8.222;2022-10-18T08:03:32;23.10;85.30
2995;DHT22;35277;49.890;8.222;2022-10-18T08:06:00;23.10;85.20
2995;DHT22;35277;49.890;8.222;2022-10-18T08:08:29;23.10;85.20
2995;DHT22;35277;49.890;8.222;2022-10-18T08:11:01;23.10;85.20
2995;DHT22;35277;49.890;8.222;2022-10-18T08:13:30;23.10;85.20
2995;DHT22;35277;49.890;8.222;2022-10-18T08:15:59;23.10;85.20
2995;DHT22;35277;49.890;8.222;2022-10-18T08:18:28;23.20;85.30
2995;DHT22;35277;49.890;8.222;2022-10-18T08:20:57;23.10;85.20
2995;DHT22;35277;49.890;8.222;2022-10-18T08:23:25;23.20;85.30
2995;DHT22;35277;49.890;8.222;2022-10-18T08:25:53;23.20;85.30
2995;DHT22;35277;49.890;8.222;2022-10-18T08:28:21;23.20;85.30
2995;DHT22;35277;49.890;8.222;2022-10-18T08:30:50;23.20;85.30
2995;DHT22;35277;49.890;8.222;2022-10-18T08:33:18;23.20;85.30
2995;DHT22;35277;49.890;8.222;2022-10-18T08:35:54;23.10;85.20
2995;DHT22;35277;49.890;8.222;2022-10-18T08:38:22;23.20;85.30
2995;DHT22;35277;49.890;8.222;2022-10-18T08:40:50;23.10;85.20
2995;DHT22;35277;49.890;8.222;2022-10-18T08:43:27;23.20;85.30
2995;DHT22;35277;49.890;8.222;2022-10-18T08:45:58;23.20;85.30
2995;DHT22;35277;49.890;8.222;2022-10-18T08:48:31;23.20;85.30
2995;DHT22;35277;49.890;8.222;2022-10-18T08:51:01;23.20;85.30
2995;DHT22;35277;49.890;8.222;2022-10-18T08:53:34;23.20;85.20
2995;DHT22;35277;49.890;8.222;2022-10-18T08:56:10;23.20;85.20
2995;DHT22;35277;49.890;8.222;2022-10-18T08:58:41;23.20;85.20
2995;DHT22;35277;49.890;8.222;2022-10-18T09:01:21;23.20;85.10
2995;DHT22;35277;49.890;8.222;2022-10-18T09:04:14;23.20;85.20
2995;DHT22;35277;49.890;8.222;2022-10-18T09:06:50;23.20;85.20
2995;DHT22;35277;49.890;8.222;2022-10-18T09:09:30;23.20;85.20
2995;DHT22;35277;49.890;8.222;2022-10-18T09:12:12;23.20;85.20
2995;DHT22;35277;49.890;8.222;2022-10-18T09:15:07;23.20;85.20
2995;DHT22;35277;49.890;8.222;2022-10-18T09:17:47;23.20;85.20
2995;DHT22;35277;49.890;8.222;2022-10-18T09:20:22;23.20;85.10
2995;DHT22;35277;49.890;8.222;2022-10-18T09:22:52;23.20;85.10
2995;DHT22;35277;49.890;8.222;2022-10-18T09:25:23;23.20;85.20
2995;DHT22;35277;49.890;8.222;2022-10-18T09:27:55;23.20;85.10
2995;DHT22;35277;49.890;8.222;2022-10-18T09:30:40;23.20;85.10
2995;DHT22;35277;49.890;8.222;2022-10-18T09:33:28;23.20;85.20
2995;DHT22;35277;49.890;8.222;2022-10-18T09:36:01;23.20;85.20
2995;DHT22;35277;49.890;8.222;2022-10-18T09:38:33;23.20;85.20
2995;DHT22;35277;49.890;8.222;2022-10-18T09:41:05;23.20;85.20
2995;DHT22;35277;49.890;8.222;2022-10-18T09:43:42;23.20;85.20
2995;DHT22;35277;49.890;8.222;2022-10-18T09:46:13;23.20;85.20
2995;DHT22;35277;49.890;8.222;2022-10-18T09:48:45;23.20;85.20
2995;DHT22;35277;49.890;8.222;2022-10-18T09:51:15;23.20;85.20
2995;DHT22;35277;49.890;8.222;2022-10-18T09:54:05;23.20;85.20
2995;DHT22;35277;49.890;8.222;2022-10-18T09:56:37;23.20;85.20
2995;DHT22;35277;49.890;8.222;2022-10-18T10:02:05;23.20;85.20
2995;DHT22;35277;49.890;8.222;2022-10-18T10:04:34;23.20;85.20
2995;DHT22;35277;49.890;8.222;2022-10-18T10:07:07;23.20;85.20
2995;DHT22;35277;49.890;8.222;2022-10-18T10:09:43;23.20;85.20
2995;DHT22;35277;49.890;8.222;2022-10-18T10:12:29;23.20;85.20
2995;DHT22;35277;49.890;8.222;2022-10-18T10:15:07;23.20;86.00
2995;DHT22;35277;49.890;8.222;2022-10-18T10:17:36;23.20;85.20
2995;DHT22;35277;49.890;8.222;2022-10-18T10:20:16;23.20;85.10
2995;DHT22;35277;49.890;8.222;2022-10-18T10:22:44;23.20;85.10
2995;DHT22;35277;49.890;8.222;2022-10-18T10:25:20;23.20;85.10
2995;DHT22;35277;49.890;8.222;2022-10-18T10:27:49;23.20;85.20
2995;DHT22;35277;49.890;8.222;2022-10-18T10:30:24;23.20;85.10
2995;DHT22;35277;49.890;8.222;2022-10-18T10:32:53;23.20;85.20
2995;DHT22;35277;49.890;8.222;2022-10-18T10:35:28;23.20;85.20
2995;DHT22;35277;49.890;8.222;2022-10-18T10:38:22;23.20;85.20
2995;DHT22;35277;49.890;8.222;2022-10-18T10:40:50;23.30;85.30
2995;DHT22;35277;49.890;8.222;2022-10-18T10:43:21;23.30;85.30
2995;DHT22;35277;49.890;8.222;2022-10-18T10:46:06;23.30;85.30
2995;DHT22;35277;49.890;8.222;2022-10-18T10:48:41;23.30;85.40
2995;DHT22;35277;49.890;8.222;2022-10-18T10:51:16;23.30;85.40
2995;DHT22;35277;49.890;8.222;2022-10-18T10:53:49;23.20;85.30
2995;DHT22;35277;49.890;8.222;2022-10-18T10:56:23;23.30;85.50
2995;DHT22;35277;49.890;8.222;2022-10-18T10:58:52;23.30;85.50
2995;DHT22;35277;49.890;8.222;2022-10-18T11:01:26;23.30;85.40
2995;DHT22;35277;49.890;8.222;2022-10-18T11:03:56;23.30;85.40
2995;DHT22;35277;49.890;8.222;2022-10-18T11:06:33;23.30;85.40
2995;DHT22;35277;49.890;8.222;2022-10-18T11:09:05;23.30;85.40
2995;DHT22;35277;49.890;8.222;2022-10-18T11:11:39;23.30;85.40
2995;DHT22;35277;49.890;8.222;2022-10-18T11:14:16;23.20;85.40
2995;DHT22;35277;49.890;8.222;2022-10-18T11:17:16;23.30;85.40
2995;DHT22;35277;49.890;8.222;2022-10-18T11:19:58;23.30;85.40
2995;DHT22;35277;49.890;8.222;2022-10-18T11:22:34;23.30;85.50
2995;DHT22;35277;49.890;8.222;2022-10-18T11:25:04;23.30;85.60
2995;DHT22;35277;49.890;8.222;2022-10-18T11:27:35;23.30;85.70
2995;DHT22;35277;49.890;8.222;2022-10-18T11:30:22;23.30;86.00
2995;DHT22;35277;49.890;8.222;2022-10-18T11:32:57;23.30;86.10
2995;DHT22;35277;49.890;8.222;2022-10-18T11:35:37;23.30;86.10
2995;DHT22;35277;49.890;8.222;2022-10-18T11:38:21;23.30;86.30
2995;DHT22;35277;49.890;8.222;2022-10-18T11:41:00;23.30;86.40
2995;DHT22;35277;49.890;8.222;2022-10-18T11:43:36;23.40;86.70
2995;DHT22;35277;49.890;8.222;2022-10-18T11:46:37;23.40;86.90
2995;DHT22;35277;49.890;8.222;2022-10-18T11:49:15;23.40;87.10
2995;DHT22;35277;49.890;8.222;2022-10-18T11:51:58;23.40;87.20
2995;DHT22;35277;49.890;8.222;2022-10-18T11:54:48;23.40;87.20
2995;DHT22;35277;49.890;8.222;2022-10-18T11:57:31;23.50;87.40
2995;DHT22;35277;49.890;8.222;2022-10-18T12:00:08;23.40;87.30
2995;DHT22;35277;49.890;8.222;2022-10-18T12:02:57;23.50;87.50
2995;DHT22;35277;49.890;8.222;2022-10-18T12:05:29;23.50;87.50
2995;DHT22;35277;49.890;8.222;2022-10-18T12:08:02;23.50;87.50
2995;DHT22;35277;49.890;8.222;2022-10-18T12:10:34;23.50;87.50
2995;DHT22;35277;49.890;8.222;2022-10-18T12:13:28;23.50;87.20
2995;DHT22;35277;49.890;8.222;2022-10-18T12:16:02;23.50;87.20
2995;DHT22;35277;49.890;8.222;2022-10-18T12:18:31;23.40;87.20
2995;DHT22;35277;49.890;8.222;2022-10-18T12:21:00;23.40;87.20
2995;DHT22;35277;49.890;8.222;2022-10-18T12:23:38;23.40;87.30
2995;DHT22;35277;49.890;8.222;2022-10-18T12:26:10;23.40;87.40
2995;DHT22;35277;49.890;8.222;2022-10-18T12:28:46;23.40;87.40
2995;DHT22;35277;49.890;8.222;2022-10-18T12:31:21;23.40;87.30
2995;DHT22;35277;49.890;8.222;2022-10-18T12:33:54;23.40;87.30
2995;DHT22;35277;49.890;8.222;2022-10-18T12:36:35;23.40;87.20
2995;DHT22;35277;49.890;8.222;2022-10-18T12:39:11;23.40;87.30
2995;DHT22;35277;49.890;8.222;2022-10-18T12:41:40;23.40;87.20
2995;DHT22;35277;49.890;8.222;2022-10-18T12:44:18;23.40;87.20
2995;DHT22;35277;49.890;8.222;2022-10-18T12:46:48;23.40;87.20
2995;DHT22;35277;49.890;8.222;2022-10-18T12:49:19;23.40;87.20
2995;DHT22;35277;49.890;8.222;2022-10-18T12:51:51;23.40;87.20
2995;DHT22;35277;49.890;8.222;2022-10-18T12:54:22;23.40;87.20
2995;DHT22;35277;49.890;8.222;2022-10-18T12:56:53;23.40;87.10
2995;DHT22;35277;49.890;8.222;2022-10-18T12:59:48;23.40;87.10
2995;DHT22;35277;49.890;8.222;2022-10-18T13:02:28;23.40;87.10
2995;DHT22;35277;49.890;8.222;2022-10-18T13:04:59;23.40;87.10
2995;DHT22;35277;49.890;8.222;2022-10-18T13:07:38;23.40;87.10
2995;DHT22;35277;49.890;8.222;2022-10-18T13:10:39;23.40;87.10
2995;DHT22;35277;49.890;8.222;2022-10-18T13:13:32;23.40;87.00
2995;DHT22;35277;49.890;8.222;2022-10-18T13:16:14;23.40;87.00
2995;DHT22;35277;49.890;8.222;2022-10-18T13:18:52;23.40;87.00
2995;DHT22;35277;49.890;8.222;2022-10-18T13:21:28;23.40;87.00
2995;DHT22;35277;49.890;8.222;2022-10-18T13:24:20;23.40;87.00
2995;DHT22;35277;49.890;8.222;2022-10-18T13:27:04;23.40;87.00
2995;DHT22;35277;49.890;8.222;2022-10-18T13:30:36;23.50;87.00
2995;DHT22;35277;49.890;8.222;2022-10-18T13:33:27;23.40;87.00
2995;DHT22;35277;49.890;8.222;2022-10-18T13:35:56;23.40;87.00
2995;DHT22;35277;49.890;8.222;2022-10-18T13:41:18;23.40;87.10
2995;DHT22;35277;49.890;8.222;2022-10-18T13:49:57;23.40;87.20
2995;DHT22;35277;49.890;8.222;2022-10-18T13:52:39;23.40;87.20
2995;DHT22;35277;49.890;8.222;2022-10-18T13:55:31;23.40;87.30
2995;DHT22;35277;49.890;8.222;2022-10-18T13:58:07;23.40;87.40
2995;DHT22;35277;49.890;8.222;2022-10-18T14:00:48;23.40;87.30
2995;DHT22;35277;49.890;8.222;2022-10-18T14:03:42;23.40;87.50
2995;DHT22;35277;49.890;8.222;2022-10-18T14:06:33;23.40;87.50
2995;DHT22;35277;49.890;8.222;2022-10-18T14:09:04;23.40;87.50
2995;DHT22;35277;49.890;8.222;2022-10-18T14:11:58;23.30;87.40
2995;DHT22;35277;49.890;8.222;2022-10-18T14:14:32;23.40;87.60
2995;DHT22;35277;49.890;8.222;2022-10-18T14:17:08;23.30;87.50
2995;DHT22;35277;49.890;8.222;2022-10-18T14:19:46;23.40;87.60
2995;DHT22;35277;49.890;8.222;2022-10-18T14:22:19;23.40;87.70
2995;DHT22;35277;49.890;8.222;2022-10-18T14:24:50;23.40;87.60
2995;DHT22;35277;49.890;8.222;2022-10-18T14:27:21;23.40;87.70
2995;DHT22;35277;49.890;8.222;2022-10-18T14:30:06;23.40;87.70
2995;DHT22;35277;49.890;8.222;2022-10-18T14:32:35;23.30;87.70
2995;DHT22;35277;49.890;8.222;2022-10-18T14:35:03;23.30;87.70
2995;DHT22;35277;49.890;8.222;2022-10-18T14:38:01;23.40;87.80
2995;DHT22;35277;49.890;8.222;2022-10-18T14:40:32;23.30;87.70
2995;DHT22;35277;49.890;8.222;2022-10-18T14:43:06;23.30;87.70
2995;DHT22;35277;49.890;8.222;2022-10-18T14:45:37;23.30;87.80
2995;DHT22;35277;49.890;8.222;2022-10-18T14:48:13;23.30;87.80
2995;DHT22;35277;49.890;8.222;2022-10-18T14:50:42;23.30;87.80
2995;DHT22;35277;49.890;8.222;2022-10-18T14:53:16;23.30;87.80
2995;DHT22;35277;49.890;8.222;2022-10-18T14:55:52;23.30;87.80
2995;DHT22;35277;49.890;8.222;2022-10-18T14:58:21;23.30;87.90
2995;DHT22;35277;49.890;8.222;2022-10-18T15:00:49;23.30;87.90
2995;DHT22;35277;49.890;8.222;2022-10-18T15:03:17;23.30;87.90
2995;DHT22;35277;49.890;8.222;2022-10-18T15:05:53;23.30;87.90
2995;DHT22;35277;49.890;8.222;2022-10-18T15:08:24;23.30;87.90
2995;DHT22;35277;49.890;8.222;2022-10-18T15:10:53;23.30;87.90
2995;DHT22;35277;49.890;8.222;2022-10-18T15:13:21;23.30;87.90
2995;DHT22;35277;49.890;8.222;2022-10-18T15:15:50;23.30;87.90
2995;DHT22;35277;49.890;8.222;2022-10-18T15:18:20;23.30;87.90
2995;DHT22;35277;49.890;8.222;2022-10-18T15:21:19;23.30;87.90
2995;DHT22;35277;49.890;8.222;2022-10-18T15:23:49;23.30;88.00
2995;DHT22;35277;49.890;8.222;2022-10-18T15:26:21;23.30;87.90
2995;DHT22;35277;49.890;8.222;2022-10-18T15:28:52;23.30;88.00
2995;DHT22;35277;49.890;8.222;2022-10-18T15:31:27;23.30;88.10
2995;DHT22;35277;49.890;8.222;2022-10-18T15:34:07;23.30;88.10
2995;DHT22;35277;49.890;8.222;2022-10-18T15:36:35;23.30;88.20
2995;DHT22;35277;49.890;8.222;2022-10-18T15:39:07;23.30;88.30
2995;DHT22;35277;49.890;8.222;2022-10-18T15:41:42;23.30;88.30
2995;DHT22;35277;49.890;8.222;2022-10-18T15:44:20;23.30;88.40
2995;DHT22;35277;49.890;8.222;2022-10-18T15:46:50;23.30;88.50
2995;DHT22;35277;49.890;8.222;2022-10-18T15:49:48;23.30;88.60
2995;DHT22;35277;49.890;8.222;2022-10-18T15:52:32;23.30;88.60
2995;DHT22;35277;49.890;8.222;2022-10-18T15:55:46;23.30;88.70
2995;DHT22;35277;49.890;8.222;2022-10-18T15:58:19;23.30;88.70
2995;DHT22;35277;49.890;8.222;2022-10-18T16:00:49;23.30;88.60
2995;DHT22;35277;49.890;8.222;2022-10-18T16:03:18;23.30;88.70
2995;DHT22;35277;49.890;8.222;2022-10-18T16:05:47;23.30;88.70
2995;DHT22;35277;49.890;8.222;2022-10-18T16:08:19;23.30;88.70
2995;DHT22;35277;49.890;8.222;2022-10-18T16:10:51;23.30;88.70
2995;DHT22;35277;49.890;8.222;2022-10-18T16:13:19;23.30;88.60
2995;DHT22;35277;49.890;8.222;2022-10-18T16:15:47;23.30;88.60
2995;DHT22;35277;49.890;8.222;2022-10-18T16:18:16;23.30;88.60
2995;DHT22;35277;49.890;8.222;2022-10-18T16:20:45;23.40;88.80
2995;DHT22;35277;49.890;8.222;2022-10-18T16:23:18;23.40;88.80
2995;DHT22;35277;49.890;8.222;2022-10-18T16:25:46;23.40;88.80
2995;DHT22;35277;49.890;8.222;2022-10-18T16:28:19;23.40;88.70
2995;DHT22;35277;49.890;8.222;2022-10-18T16:30:52;23.40;88.60
2995;DHT22;35277;49.890;8.222;2022-10-18T16:33:20;23.40;88.60